createdAt,value
2016-06-24T00:00:55.411Z,18.96
2016-06-24T00:01:55.883Z,18.93
2016-06-24T00:02:55.928Z,18.91
2016-06-24T00:03:55.438Z,18.97
2016-06-24T00:04:55.412Z,18.97
2016-06-24T00:05:55.427Z,18.91
2016-06-24T00:06:55.392Z,18.97
2016-06-24T00:07:55.395Z,18.99
2016-06-24T00:08:56.034Z,18.99
2016-06-24T00:09:56.774Z,18.96
2016-06-24T00:10:55.404Z,18.94
2016-06-24T00:11:55.364Z,18.99
2016-06-24T00:12:55.383Z,18.96
2016-06-24T00:13:55.448Z,19
2016-06-24T00:14:55.406Z,19.05
2016-06-24T00:15:55.429Z,19.1
2016-06-24T00:16:55.436Z,18.99
2016-06-24T00:17:55.387Z,19
2016-06-24T00:18:55.408Z,19.02
2016-06-24T00:19:55.425Z,19.02
2016-06-24T00:20:55.421Z,19.06
2016-06-24T00:21:55.440Z,19.05
2016-06-24T00:22:55.427Z,19
2016-06-24T00:23:55.395Z,19.06
2016-06-24T00:24:55.417Z,19.1
2016-06-24T00:25:55.491Z,19.12
2016-06-24T00:26:55.470Z,18.91
2016-06-24T00:27:55.439Z,19.02
2016-06-24T00:28:55.441Z,19
2016-06-24T00:29:55.412Z,18.96
2016-06-24T00:30:55.449Z,19.09
2016-06-24T00:31:55.407Z,19.02
2016-06-24T00:32:55.426Z,19.1
2016-06-24T00:33:55.459Z,18.97
2016-06-24T00:34:55.431Z,19.12
2016-06-24T00:35:55.493Z,19.02
2016-06-24T00:36:55.434Z,18.97
2016-06-24T00:37:55.452Z,19.02
2016-06-24T00:38:55.500Z,18.94
2016-06-24T00:39:55.488Z,18.99
2016-06-24T00:40:55.419Z,19
2016-06-24T00:41:55.505Z,18.93
2016-06-24T00:42:55.472Z,18.91
2016-06-24T00:43:55.485Z,18.94
2016-06-24T00:44:55.499Z,19.02
2016-06-24T00:45:55.481Z,19.09
2016-06-24T00:46:55.483Z,18.99
2016-06-24T00:47:55.481Z,18.99
2016-06-24T00:48:55.477Z,19.05
2016-06-24T00:49:55.490Z,19.1
2016-06-24T00:50:55.486Z,19.06
2016-06-24T00:51:55.538Z,19.06
2016-06-24T00:52:55.500Z,19.09
2016-06-24T00:53:55.458Z,18.94
2016-06-24T00:54:55.504Z,19.06
2016-06-24T00:55:55.534Z,19.07
2016-06-24T00:56:55.519Z,19.07
2016-06-24T00:57:55.511Z,19.06
2016-06-24T00:58:55.509Z,19.12
2016-06-24T00:59:55.547Z,19.07
2016-06-24T01:00:55.515Z,19.09
2016-06-24T01:01:55.572Z,19.09
2016-06-24T01:02:55.511Z,19.06
2016-06-24T01:03:55.545Z,19.05
2016-06-24T01:04:55.542Z,19.12
2016-06-24T01:05:55.561Z,19.09
2016-06-24T01:06:55.609Z,19.05
2016-06-24T01:07:55.511Z,19.1
2016-06-24T01:08:55.512Z,19.02
2016-06-24T01:09:55.525Z,19
2016-06-24T01:10:55.552Z,18.97
2016-06-24T01:11:55.570Z,19.05
2016-06-24T01:12:55.573Z,19.06
2016-06-24T01:13:55.551Z,19
2016-06-24T01:14:56.111Z,18.96
2016-06-24T01:15:55.578Z,18.99
2016-06-24T01:16:55.565Z,19
2016-06-24T01:17:55.545Z,19.02
2016-06-24T01:18:55.580Z,18.91
2016-06-24T01:19:55.578Z,19
2016-06-24T01:20:55.523Z,18.94
2016-06-24T01:21:55.563Z,18.86
2016-06-24T01:22:55.571Z,18.9
2016-06-24T01:23:55.586Z,19.02
2016-06-24T01:24:56.259Z,18.97
2016-06-24T01:25:55.580Z,18.91
2016-06-24T01:26:55.622Z,18.94
2016-06-24T01:27:55.624Z,18.89
2016-06-24T01:28:55.532Z,18.84
2016-06-24T01:29:55.587Z,18.93
2016-06-24T01:30:55.555Z,18.93
2016-06-24T01:31:55.567Z,18.84
2016-06-24T01:32:55.622Z,18.9
2016-06-24T01:33:56.233Z,18.9
2016-06-24T01:34:55.587Z,18.82
2016-06-24T01:35:55.603Z,18.86
2016-06-24T01:36:55.638Z,18.81
2016-06-24T01:37:55.629Z,18.91
2016-06-24T01:38:55.622Z,18.76
2016-06-24T01:39:55.629Z,18.89
2016-06-24T01:40:55.605Z,18.9
2016-06-24T01:41:55.628Z,18.82
2016-06-24T01:42:55.611Z,18.79
2016-06-24T01:43:55.621Z,18.82
2016-06-24T01:44:55.600Z,18.87
2016-06-24T01:45:55.645Z,18.89
2016-06-24T01:46:55.652Z,18.79
2016-06-24T01:47:55.661Z,18.9
2016-06-24T01:48:55.653Z,18.79
2016-06-24T01:49:55.647Z,18.79
2016-06-24T01:50:55.637Z,18.79
2016-06-24T01:51:55.601Z,18.81
2016-06-24T01:52:55.621Z,18.91
2016-06-24T01:53:55.608Z,18.84
2016-06-24T01:54:55.654Z,18.99
2016-06-24T01:55:55.702Z,18.9
2016-06-24T01:56:55.691Z,18.87
2016-06-24T01:57:55.655Z,19
2016-06-24T01:58:55.654Z,18.86
2016-06-24T01:59:55.716Z,18.94
2016-06-24T02:00:55.679Z,18.89
2016-06-24T02:01:55.655Z,18.96
2016-06-24T02:02:55.640Z,18.94
2016-06-24T02:03:55.694Z,18.87
2016-06-24T02:04:55.674Z,18.99
2016-06-24T02:05:55.702Z,18.91
2016-06-24T02:06:55.659Z,18.97
2016-06-24T02:07:55.671Z,18.93
2016-06-24T02:08:55.671Z,18.84
2016-06-24T02:09:55.713Z,19.02
2016-06-24T02:10:55.715Z,18.97
2016-06-24T02:11:55.644Z,18.87
2016-06-24T02:12:55.713Z,18.82
2016-06-24T02:13:55.688Z,18.89
2016-06-24T02:14:55.715Z,18.91
2016-06-24T02:15:55.674Z,18.81
2016-06-24T02:16:55.715Z,18.89
2016-06-24T02:17:55.681Z,18.87
2016-06-24T02:18:55.650Z,18.9
2016-06-24T02:19:55.689Z,18.93
2016-06-24T02:20:55.687Z,18.9
2016-06-24T02:21:56.572Z,18.9
2016-06-24T02:22:56.047Z,18.81
2016-06-24T02:23:55.690Z,18.78
2016-06-24T02:24:55.685Z,18.9
2016-06-24T02:25:55.677Z,18.82
2016-06-24T02:26:55.719Z,18.79
2016-06-24T02:27:55.692Z,18.78
2016-06-24T02:28:55.682Z,18.79
2016-06-24T02:29:55.722Z,18.87
2016-06-24T02:30:55.708Z,18.87
2016-06-24T02:31:55.740Z,18.79
2016-06-24T02:32:55.727Z,18.81
2016-06-24T02:33:55.752Z,18.84
2016-06-24T02:34:55.728Z,18.78
2016-06-24T02:35:55.722Z,18.81
2016-06-24T02:36:55.750Z,18.79
2016-06-24T02:37:55.738Z,18.81
2016-06-24T02:38:55.692Z,18.81
2016-06-24T02:39:55.756Z,18.78
2016-06-24T02:40:55.780Z,18.81
2016-06-24T02:41:55.741Z,18.78
2016-06-24T02:42:55.774Z,18.9
2016-06-24T02:43:55.771Z,18.81
2016-06-24T02:44:55.750Z,18.82
2016-06-24T02:45:55.719Z,18.96
2016-06-24T02:46:55.757Z,18.89
2016-06-24T02:47:55.723Z,19
2016-06-24T02:48:55.762Z,18.84
2016-06-24T02:49:55.734Z,18.89
2016-06-24T02:50:55.793Z,18.84
2016-06-24T02:51:55.782Z,18.97
2016-06-24T02:52:55.796Z,19
2016-06-24T02:53:55.806Z,18.84
2016-06-24T02:54:55.778Z,18.86
2016-06-24T02:55:55.779Z,18.9
2016-06-24T02:56:55.810Z,18.87
2016-06-24T02:57:55.772Z,18.84
2016-06-24T02:58:55.781Z,18.9
2016-06-24T02:59:55.747Z,18.93
2016-06-24T03:00:55.807Z,18.97
2016-06-24T03:01:55.795Z,18.87
2016-06-24T03:02:55.762Z,18.84
2016-06-24T03:03:55.797Z,18.93
2016-06-24T03:04:55.797Z,18.99
2016-06-24T03:05:55.802Z,18.99
2016-06-24T03:06:55.844Z,18.9
2016-06-24T03:07:55.829Z,18.93
2016-06-24T03:08:55.785Z,18.94
2016-06-24T03:09:55.805Z,18.94
2016-06-24T03:10:55.825Z,18.97
2016-06-24T03:16:14.607Z,18.96
2016-06-24T03:16:21.473Z,18.99
2016-06-24T03:17:21.536Z,18.9
2016-06-24T03:18:21.518Z,18.94
2016-06-24T03:19:21.479Z,18.93
2016-06-24T03:20:21.470Z,18.97
2016-06-24T03:21:21.494Z,18.96
2016-06-24T03:22:21.515Z,18.96
2016-06-24T03:23:21.527Z,18.94
2016-06-24T03:24:21.516Z,18.96
2016-06-24T03:25:21.541Z,18.94
2016-06-24T03:26:21.519Z,18.9
2016-06-24T03:27:21.549Z,18.94
2016-06-24T03:28:21.537Z,18.93
2016-06-24T03:29:21.525Z,18.93
2016-06-24T03:30:21.577Z,18.96
2016-06-24T03:31:21.510Z,19.06
2016-06-24T03:32:21.520Z,19
2016-06-24T03:33:21.594Z,18.94
2016-06-24T03:34:21.559Z,18.94
2016-06-24T03:35:21.551Z,18.97
2016-06-24T03:36:21.532Z,18.91
2016-06-24T03:37:21.544Z,18.93
2016-06-24T03:38:21.547Z,18.94
2016-06-24T03:39:21.568Z,18.94
2016-06-24T03:40:21.590Z,18.9
2016-06-24T03:41:21.571Z,18.99
2016-06-24T03:42:21.602Z,18.99
2016-06-24T03:43:21.590Z,18.94
2016-06-24T03:44:21.581Z,18.9
2016-06-24T03:45:21.534Z,18.97
2016-06-24T03:46:21.570Z,19
2016-06-24T03:47:21.597Z,18.94
2016-06-24T03:48:21.579Z,18.91
2016-06-24T03:49:21.647Z,19
2016-06-24T03:50:21.607Z,18.96
2016-06-24T03:51:21.599Z,18.91
2016-06-24T03:52:21.629Z,18.94
2016-06-24T03:53:21.587Z,18.93
2016-06-24T03:54:21.586Z,18.89
2016-06-24T03:55:22.190Z,18.82
2016-06-24T03:56:21.622Z,18.87
2016-06-24T03:57:21.612Z,18.91
2016-06-24T03:58:21.610Z,19
2016-06-24T03:59:21.664Z,18.94
2016-06-24T04:00:21.577Z,18.89
2016-06-24T04:01:21.586Z,18.9
2016-06-24T04:02:21.640Z,18.99
2016-06-24T04:03:21.643Z,19.05
2016-06-24T04:04:21.614Z,19
2016-06-24T04:05:21.648Z,19.06
2016-06-24T04:06:21.620Z,18.99
2016-06-24T04:07:21.592Z,19.06
2016-06-24T04:08:21.624Z,19.09
2016-06-24T04:09:21.649Z,19.06
2016-06-24T04:10:21.628Z,19.15
2016-06-24T04:11:21.601Z,19.05
2016-06-24T04:12:21.667Z,19.06
2016-06-24T04:13:21.629Z,19.1
2016-06-24T04:14:21.598Z,19.1
2016-06-24T04:15:21.639Z,19.06
2016-06-24T04:16:21.662Z,19.02
2016-06-24T04:17:22.441Z,19.1
2016-06-24T04:18:22.403Z,19.09
2016-06-24T04:19:21.658Z,19.07
2016-06-24T04:20:21.670Z,19.24
2016-06-24T04:21:22.359Z,19.07
2016-06-24T04:22:21.667Z,19.17
2016-06-24T04:23:21.700Z,19.06
2016-06-24T04:24:21.670Z,19.1
2016-06-24T04:25:21.703Z,19.17
2016-06-24T04:26:21.655Z,19.07
2016-06-24T04:27:21.666Z,19.09
2016-06-24T04:28:21.679Z,19.2
2016-06-24T04:29:21.739Z,19.12
2016-06-24T04:30:21.718Z,19.07
2016-06-24T04:31:21.688Z,19.12
2016-06-24T04:32:21.684Z,19.17
2016-06-24T04:33:21.645Z,19.15
2016-06-24T04:34:21.746Z,19.17
2016-06-24T04:35:21.700Z,19.23
2016-06-24T04:36:21.694Z,19.25
2016-06-24T04:37:21.712Z,19.25
2016-06-24T04:38:21.675Z,19.12
2016-06-24T04:39:21.683Z,19.13
2016-06-24T04:40:21.672Z,19.19
2016-06-24T04:41:21.693Z,19.2
2016-06-24T04:42:21.686Z,19.13
2016-06-24T04:43:21.728Z,19.24
2016-06-24T04:44:21.695Z,19.24
2016-06-24T04:45:21.691Z,19.24
2016-06-24T04:46:21.735Z,19.25
2016-06-24T04:47:21.742Z,19.2
2016-06-24T04:48:21.717Z,19.25
2016-06-24T04:49:21.718Z,19.19
2016-06-24T04:50:21.694Z,19.31
2016-06-24T04:51:21.717Z,19.2
2016-06-24T04:52:21.712Z,19.25
2016-06-24T04:53:21.715Z,19.24
2016-06-24T04:54:21.689Z,19.28
2016-06-24T04:55:21.752Z,19.23
2016-06-24T04:56:21.746Z,19.28
2016-06-24T04:57:21.759Z,19.28
2016-06-24T04:58:21.714Z,19.31
2016-06-24T04:59:21.734Z,19.31
2016-06-24T05:00:21.740Z,19.3
2016-06-24T05:01:21.745Z,19.3
2016-06-24T05:02:21.751Z,19.37
2016-06-24T05:03:21.725Z,19.31
2016-06-24T05:04:21.785Z,19.24
2016-06-24T05:05:21.775Z,19.28
2016-06-24T05:06:21.796Z,19.38
2016-06-24T05:07:21.722Z,19.35
2016-06-24T05:08:21.769Z,19.28
2016-06-24T05:09:21.733Z,19.31
2016-06-24T05:10:21.783Z,19.31
2016-06-24T05:11:21.724Z,19.24
2016-06-24T05:12:21.755Z,19.35
2016-06-24T05:13:21.825Z,19.31
2016-06-24T05:14:21.734Z,19.37
2016-06-24T05:15:21.775Z,19.38
2016-06-24T05:16:21.782Z,19.31
2016-06-24T05:17:21.775Z,19.4
2016-06-24T05:18:21.752Z,19.42
2016-06-24T05:19:21.777Z,19.38
2016-06-24T05:20:21.761Z,19.49
2016-06-24T05:21:21.799Z,19.49
2016-06-24T05:22:21.770Z,19.38
2016-06-24T05:23:21.762Z,19.5
2016-06-24T05:24:21.785Z,19.43
2016-06-24T05:25:21.842Z,19.5
2016-06-24T05:26:21.840Z,19.5
2016-06-24T05:27:21.771Z,19.46
2016-06-24T05:28:21.830Z,19.35
2016-06-24T05:29:21.826Z,19.43
2016-06-24T05:30:21.801Z,19.46
2016-06-24T05:31:21.775Z,19.45
2016-06-24T05:32:21.829Z,19.52
2016-06-24T05:33:21.901Z,19.53
2016-06-24T05:34:21.819Z,19.53
2016-06-24T05:35:21.817Z,19.5
2016-06-24T05:36:21.828Z,19.6
2016-06-24T05:37:21.820Z,19.65
2016-06-24T05:38:21.800Z,19.6
2016-06-24T05:39:21.807Z,19.5
2016-06-24T05:40:21.799Z,19.6
2016-06-24T05:41:21.852Z,19.57
2016-06-24T05:42:21.857Z,19.61
2016-06-24T05:43:21.846Z,19.61
2016-06-24T05:44:21.837Z,19.56
2016-06-24T05:45:21.849Z,19.57
2016-06-24T05:46:21.861Z,19.45
2016-06-24T05:47:21.842Z,19.45
2016-06-24T05:48:21.877Z,19.4
2016-06-24T05:49:21.859Z,19.52
2016-06-24T05:50:21.880Z,19.52
2016-06-24T05:51:21.891Z,19.43
2016-06-24T05:52:21.862Z,19.47
2016-06-24T05:53:21.895Z,19.52
2016-06-24T05:54:21.893Z,19.47
2016-06-24T05:55:21.844Z,19.49
2016-06-24T05:56:21.839Z,19.47
2016-06-24T05:57:21.853Z,19.53
2016-06-24T05:58:21.841Z,19.53
2016-06-24T05:59:21.901Z,19.45
2016-06-24T06:00:21.887Z,19.52
2016-06-24T06:01:21.882Z,19.53
2016-06-24T06:02:21.894Z,19.42
2016-06-24T06:03:21.859Z,19.6
2016-06-24T06:04:21.871Z,19.47
2016-06-24T06:05:21.891Z,19.53
2016-06-24T06:06:21.857Z,19.31
2016-06-24T06:07:21.871Z,19.46
2016-06-24T06:08:21.948Z,19.17
2016-06-24T06:09:21.945Z,18.91
2016-06-24T06:10:21.958Z,18.75
2016-06-24T06:11:21.965Z,18.82
2016-06-24T06:12:21.892Z,18.76
2016-06-24T06:13:21.939Z,18.81
2016-06-24T06:14:21.910Z,18.89
2016-06-24T06:15:21.968Z,18.81
2016-06-24T06:16:21.964Z,18.81
2016-06-24T06:17:21.955Z,18.81
2016-06-24T06:18:21.933Z,18.84
2016-06-24T06:19:21.947Z,18.9
2016-06-24T06:20:21.905Z,18.96
2016-06-24T06:21:21.928Z,19.09
2016-06-24T06:22:21.955Z,19.06
2016-06-24T06:23:21.934Z,19.02
2016-06-24T06:24:21.924Z,19.06
2016-06-24T06:25:21.975Z,19.07
2016-06-24T06:26:21.964Z,19.06
2016-06-24T06:27:21.946Z,19.23
2016-06-24T06:28:21.939Z,19.4
2016-06-24T06:29:21.925Z,19.5
2016-06-24T06:30:21.991Z,19.52
2016-06-24T06:31:21.948Z,19.7
2016-06-24T06:32:21.920Z,19.75
2016-06-24T06:33:21.956Z,19.74
2016-06-24T06:34:21.926Z,19.75
2016-06-24T06:35:21.955Z,19.71
2016-06-24T06:36:21.956Z,19.71
2016-06-24T06:37:21.967Z,19.78
2016-06-24T06:38:21.999Z,19.82
2016-06-24T06:39:22.021Z,19.92
2016-06-24T06:40:22.134Z,19.93
2016-06-24T06:41:22.004Z,19.89
2016-06-24T06:42:21.945Z,19.93
2016-06-24T06:43:22.635Z,19.92
2016-06-24T06:44:22.094Z,19.92
2016-06-24T06:45:21.985Z,19.98
2016-06-24T06:46:21.991Z,19.97
2016-06-24T06:47:22.330Z,20.01
2016-06-24T06:48:22.020Z,20.04
2016-06-24T06:49:21.991Z,3116479.75
2016-06-24T06:50:22.020Z,3116479.75
2016-06-24T06:52:22.138Z,3116479.75
2016-06-24T06:53:22.026Z,19.94
2016-06-24T06:54:22.151Z,3116479.75
2016-06-24T06:55:22.013Z,3116479.75
2016-06-24T06:56:22.065Z,3116479.75
2016-06-24T06:57:22.054Z,3116479.75
2016-06-24T06:58:22.064Z,3116479.75
2016-06-24T06:59:22.126Z,3116479.75
2016-06-24T07:00:23.489Z,3116479.75
2016-06-24T07:01:22.073Z,3116479.75
2016-06-24T07:02:22.030Z,3116479.75
2016-06-24T07:03:22.054Z,3116479.75
2016-06-24T07:04:22.030Z,3116479.75
2016-06-24T07:05:22.131Z,3116479.75
2016-06-24T07:06:22.027Z,3116479.75
2016-06-24T07:07:22.067Z,3116479.75
2016-06-24T07:08:22.021Z,3116479.75
2016-06-24T07:09:22.021Z,3116479.75
2016-06-24T07:10:22.075Z,3116479.75
2016-06-24T07:11:22.067Z,3116479.75
2016-06-24T07:12:22.064Z,3116479.75
2016-06-24T07:13:22.043Z,3116479.75
2016-06-24T07:14:22.162Z,3116479.75
2016-06-24T07:15:22.102Z,3116479.75
2016-06-24T07:16:22.163Z,3116479.75
2016-06-24T07:17:22.132Z,3116479.75
2016-06-24T07:18:22.153Z,3116479.75
2016-06-24T07:19:22.115Z,3116479.75
2016-06-24T07:20:22.029Z,3116479.75
2016-06-24T07:21:22.079Z,3116479.75
2016-06-24T07:22:22.043Z,3116479.75
2016-06-24T07:23:22.143Z,3116479.75
2016-06-24T07:24:22.330Z,3116479.75
2016-06-24T07:25:22.306Z,3116479.75
2016-06-24T07:26:22.044Z,3116479.75
2016-06-24T07:27:22.151Z,3116479.75
2016-06-24T07:28:22.046Z,3116479.75
2016-06-24T07:29:22.069Z,3116479.75
2016-06-24T07:30:22.077Z,3116479.75
2016-06-24T07:31:22.542Z,3116479.75
2016-06-24T07:32:22.042Z,3116479.75
2016-06-24T07:33:22.094Z,3116479.75
2016-06-24T07:34:22.089Z,3116479.75
2016-06-24T07:35:22.094Z,3116479.75
2016-06-24T07:36:22.155Z,3116479.75
2016-06-24T07:37:22.104Z,3116479.75
2016-06-24T07:38:22.057Z,3116479.75
2016-06-24T07:39:22.763Z,3116479.75
2016-06-24T07:40:22.050Z,3116479.75
2016-06-24T07:41:22.134Z,3116479.75
2016-06-24T07:42:22.111Z,3116479.75
2016-06-24T07:43:22.062Z,3116479.75
2016-06-24T07:44:22.070Z,3116479.75
2016-06-24T07:45:22.071Z,3116479.75
2016-06-24T07:46:22.089Z,3116479.75
2016-06-24T07:47:22.043Z,3116479.75
2016-06-24T07:48:22.139Z,3116479.75
2016-06-24T07:49:22.154Z,3116479.75
2016-06-24T07:50:22.108Z,3116479.75
2016-06-24T07:51:22.092Z,21.94
2016-06-24T07:52:22.095Z,21.71
2016-06-24T07:53:22.090Z,21.85
2016-06-24T07:54:22.151Z,21.89
2016-06-24T07:55:22.086Z,22.15
2016-06-24T07:56:22.122Z,22.26
2016-06-24T07:57:22.115Z,22.26
2016-06-24T07:58:22.138Z,22.26
2016-06-24T07:59:22.092Z,22.29
2016-06-24T08:00:22.162Z,22.38
2016-06-24T08:01:22.112Z,22.55
2016-06-24T08:02:22.199Z,22.67
2016-06-24T08:03:22.094Z,23.04
2016-06-24T08:04:22.067Z,23.16
2016-06-24T08:05:22.095Z,23.34
2016-06-24T08:06:22.124Z,23.48
2016-06-24T08:07:22.091Z,3116479.75
2016-06-24T08:08:22.099Z,3116479.75
2016-06-24T08:09:22.123Z,3116479.75
2016-06-24T08:10:22.144Z,3116479.75
2016-06-24T08:11:22.114Z,3116479.75
2016-06-24T08:12:22.144Z,3116479.75
2016-06-24T08:13:22.126Z,3116479.75
2016-06-24T08:14:22.235Z,3116479.75
2016-06-24T08:15:22.165Z,3116479.75
2016-06-24T08:16:22.090Z,3116479.75
2016-06-24T08:17:22.109Z,3116479.75
2016-06-24T08:18:22.131Z,3116479.75
2016-06-24T08:19:22.166Z,3116479.75
2016-06-24T08:20:22.130Z,3116479.75
2016-06-24T08:21:22.097Z,3116479.75
2016-06-24T08:22:22.134Z,3116479.75
2016-06-24T08:23:22.242Z,3116479.75
2016-06-24T08:24:22.208Z,3116479.75
2016-06-24T08:25:22.125Z,3116479.75
2016-06-24T08:26:22.120Z,3116479.75
2016-06-24T08:27:22.162Z,3116479.75
2016-06-24T08:28:22.137Z,3116479.75
2016-06-24T08:29:22.137Z,3116479.75
2016-06-24T08:30:22.105Z,3116479.75
2016-06-24T08:31:22.147Z,3116479.75
2016-06-24T08:32:22.162Z,3116479.75
2016-06-24T08:33:22.196Z,3116479.75
2016-06-24T08:34:22.110Z,3116479.75
2016-06-24T08:35:22.124Z,3116479.75
2016-06-24T08:36:22.183Z,3116479.75
2016-06-24T08:37:22.142Z,3116479.75
2016-06-24T08:38:22.151Z,3116479.75
2016-06-24T08:39:22.263Z,3116479.75
2016-06-24T08:40:22.184Z,3116479.75
2016-06-24T08:41:22.190Z,3116479.75
2016-06-24T08:42:22.230Z,3116479.75
2016-06-24T08:43:22.139Z,3116479.75
2016-06-24T08:44:22.519Z,3116479.75
2016-06-24T08:45:22.222Z,3116479.75
2016-06-24T08:46:22.162Z,3116479.75
2016-06-24T08:47:22.135Z,3116479.75
2016-06-24T08:48:22.193Z,3116479.75
2016-06-24T08:49:22.149Z,3116479.75
2016-06-24T08:50:22.138Z,3116479.75
2016-06-24T08:51:22.156Z,3116479.75
2016-06-24T08:52:22.192Z,3116479.75
2016-06-24T08:53:22.160Z,3116479.75
2016-06-24T08:54:22.186Z,3116479.75
2016-06-24T08:55:22.180Z,3116479.75
2016-06-24T08:56:22.177Z,3116479.75
2016-06-24T08:57:22.202Z,3116479.75
2016-06-24T08:58:22.183Z,3116479.75
2016-06-24T08:59:22.194Z,3116479.75
2016-06-24T09:00:22.178Z,3116479.75
2016-06-24T09:01:22.190Z,3116479.75
2016-06-24T09:02:22.266Z,3116479.75
2016-06-24T09:03:22.221Z,3116479.75
2016-06-24T09:04:22.238Z,3116479.75
2016-06-24T09:05:23.071Z,3116479.75
2016-06-24T09:06:22.198Z,3116479.75
2016-06-24T09:07:22.405Z,3116479.75
2016-06-24T09:08:22.186Z,3116479.75
2016-06-24T09:09:22.170Z,3116479.75
2016-06-24T09:10:22.175Z,3116479.75
2016-06-24T09:11:22.203Z,3116479.75
2016-06-24T09:12:22.258Z,3116479.75
2016-06-24T09:13:22.216Z,3116479.75
2016-06-24T09:14:22.215Z,3116479.75
2016-06-24T09:15:22.235Z,3116479.75
2016-06-24T09:16:22.170Z,3116479.75
2016-06-24T09:17:22.175Z,3116479.75
2016-06-24T09:18:22.241Z,3116479.75
2016-06-24T09:19:22.187Z,3116479.75
2016-06-24T09:20:22.267Z,3116479.75
2016-06-24T09:21:22.226Z,3116479.75
2016-06-24T09:31:01.362Z,3116479.75
2016-06-24T09:31:08.236Z,2820799.25
2016-06-24T09:32:08.377Z,3116479.75
2016-06-24T09:33:08.284Z,3116479.75
2016-06-24T09:34:08.331Z,3116479.75
2016-06-24T09:35:08.269Z,3116479.75
2016-06-24T09:36:08.275Z,3116479.75
2016-06-24T09:37:08.281Z,3116479.75
2016-06-24T09:38:08.296Z,3116479.75
2016-06-24T09:39:08.327Z,25.86
2016-06-24T09:40:08.265Z,25.93
2016-06-24T09:41:08.276Z,25.89
2016-06-24T09:42:08.320Z,26.11
2016-06-24T09:43:08.315Z,26.35
2016-06-24T09:44:08.318Z,26.35
2016-06-24T09:45:08.282Z,26.56
2016-06-24T09:46:08.311Z,26.6
2016-06-24T09:47:08.290Z,26.61
2016-06-24T09:48:08.348Z,26.63
2016-06-24T09:49:08.272Z,26.45
2016-06-24T09:50:08.422Z,26.31
2016-06-24T09:51:08.497Z,25.74
2016-06-24T09:52:08.353Z,25.44
2016-06-24T09:53:08.479Z,25.48
2016-06-24T09:54:08.403Z,25.42
2016-06-24T09:55:08.411Z,25.66
2016-06-24T09:56:08.324Z,25.78
2016-06-24T09:57:08.356Z,25.81
2016-06-24T09:58:08.841Z,25.91
2016-06-24T09:59:08.347Z,26.09
2016-06-24T10:00:08.445Z,26.19
2016-06-24T10:01:08.368Z,26.35
2016-06-24T10:02:08.343Z,26.49
2016-06-24T10:03:08.347Z,26.52
2016-06-24T10:04:08.370Z,26.49
2016-06-24T10:05:08.301Z,26.69
2016-06-24T10:06:08.331Z,26.82
2016-06-24T10:07:08.297Z,26.54
2016-06-24T10:08:08.345Z,26.49
2016-06-24T10:09:08.359Z,26.87
2016-06-24T10:10:08.336Z,27
2016-06-24T10:11:08.349Z,27.13
2016-06-24T10:12:08.324Z,27.37
2016-06-24T10:13:08.290Z,27.71
2016-06-24T10:14:08.855Z,27.72
2016-06-24T10:15:08.397Z,27.86
2016-06-24T10:16:08.379Z,27.94
2016-06-24T10:17:08.326Z,27.9
2016-06-24T10:18:08.324Z,28.14
2016-06-24T10:19:08.335Z,28.36
2016-06-24T10:20:08.322Z,28.46
2016-06-24T10:21:08.389Z,28.14
2016-06-24T10:22:08.321Z,28.08
2016-06-24T10:23:08.507Z,28.26
2016-06-24T10:24:08.353Z,28.46
2016-06-24T10:25:08.495Z,28.64
2016-06-24T10:26:08.384Z,29.32
2016-06-24T10:27:08.342Z,29.58
2016-06-24T10:28:08.410Z,30.06
2016-06-24T10:29:08.378Z,30.25
2016-06-24T10:30:08.443Z,30.51
2016-06-24T10:31:08.380Z,30.69
2016-06-24T10:32:08.411Z,30.85
2016-06-24T10:33:08.975Z,30.97
2016-06-24T10:34:08.383Z,30.78
2016-06-24T10:35:08.369Z,30.48
2016-06-24T10:36:08.340Z,30.29
2016-06-24T10:37:08.375Z,30.19
2016-06-24T10:38:08.407Z,30.03
2016-06-24T10:39:08.424Z,29.97
2016-06-24T10:40:08.415Z,30.18
2016-06-24T10:41:08.364Z,30.51
2016-06-24T10:42:08.399Z,30.67
2016-06-24T10:43:08.413Z,30.21
2016-06-24T10:44:08.383Z,30.37
2016-06-24T10:45:08.445Z,30.69
2016-06-24T10:46:08.533Z,30.84
2016-06-24T10:47:08.498Z,31
2016-06-24T10:48:08.469Z,31.15
2016-06-24T10:49:08.396Z,31.36
2016-06-24T10:50:08.434Z,31.74
2016-06-24T10:51:08.396Z,31.6
2016-06-24T10:52:08.427Z,31.93
2016-06-24T10:53:08.407Z,32.09
2016-06-24T10:54:09.265Z,32.12
2016-06-24T10:55:08.516Z,32.39
2016-06-24T10:56:08.484Z,32.59
2016-06-24T10:57:09.434Z,32.72
2016-06-24T10:58:08.480Z,32.39
2016-06-24T10:59:09.101Z,31.77
2016-06-24T11:00:08.406Z,31.68
2016-06-24T11:01:08.395Z,31.37
2016-06-24T11:02:08.489Z,31.1
2016-06-24T11:03:08.587Z,30.77
2016-06-24T11:04:08.469Z,31.15
2016-06-24T11:05:08.529Z,31.41
2016-06-24T11:06:08.492Z,31.68
2016-06-24T11:07:08.467Z,32.1
2016-06-24T11:08:08.555Z,32.45
2016-06-24T11:09:08.520Z,32.93
2016-06-24T11:10:08.420Z,33.37
2016-06-24T11:11:08.433Z,33.65
2016-06-24T11:12:08.448Z,33.28
2016-06-24T11:13:08.516Z,33.18
2016-06-24T11:14:08.407Z,33.02
2016-06-24T11:15:08.441Z,32.8
2016-06-24T11:16:08.431Z,32.8
2016-06-24T11:17:08.457Z,33.03
2016-06-24T11:18:08.398Z,33.48
2016-06-24T11:19:08.450Z,33.69
2016-06-24T11:20:09.515Z,33.69
2016-06-24T11:21:08.560Z,33.62
2016-06-24T11:22:08.577Z,33.68
2016-06-24T11:23:08.434Z,33.56
2016-06-24T11:24:08.488Z,33.61
2016-06-24T11:25:08.433Z,33.26
2016-06-24T11:26:08.684Z,33.21
2016-06-24T11:27:08.565Z,32.65
2016-06-24T11:28:08.452Z,32.45
2016-06-24T11:29:08.444Z,31.98
2016-06-24T11:30:08.472Z,31.47
2016-06-24T11:31:08.462Z,31.28
2016-06-24T11:32:08.450Z,31.36
2016-06-24T11:33:08.436Z,31.26
2016-06-24T11:34:08.658Z,31.44
2016-06-24T11:35:08.466Z,31.52
2016-06-24T11:36:08.480Z,31.56
2016-06-24T11:37:14.023Z,31.58
2016-06-24T11:38:10.384Z,31.4
2016-06-24T11:39:08.544Z,31.36
2016-06-24T11:40:08.528Z,31.21
2016-06-24T11:41:08.478Z,30.99
2016-06-24T11:42:08.758Z,30.85
2016-06-24T11:43:09.425Z,30.89
2016-06-24T11:44:08.893Z,30.85
2016-06-24T11:45:09.234Z,30.82
2016-06-24T11:46:08.854Z,30.86
2016-06-24T11:47:08.895Z,30.75
2016-06-24T11:48:08.436Z,30.67
2016-06-24T11:49:08.529Z,30.59
2016-06-24T11:50:08.483Z,30.26
2016-06-24T11:51:08.500Z,30.06
2016-06-24T11:52:08.475Z,29.73
2016-06-24T11:53:08.582Z,29.67
2016-06-24T11:54:08.562Z,29.77
2016-06-24T11:55:08.835Z,29.51
2016-06-24T11:56:08.671Z,29.42
2016-06-24T11:57:08.462Z,29.61
2016-06-24T11:58:08.495Z,29.91
2016-06-24T11:59:08.568Z,30.14
2016-06-24T12:00:08.671Z,30.63
2016-06-24T12:01:09.046Z,30.66
2016-06-24T12:02:08.532Z,30.56
2016-06-24T12:03:08.564Z,30.25
2016-06-24T12:04:08.597Z,30.04
2016-06-24T12:05:08.535Z,30.06
2016-06-24T12:06:08.546Z,29.92
2016-06-24T12:07:08.631Z,30.21
2016-06-24T12:08:08.567Z,30.39
2016-06-24T12:09:08.484Z,30.48
2016-06-24T12:10:08.525Z,30.48
2016-06-24T12:11:08.575Z,30.28
2016-06-24T12:12:08.615Z,30.45
2016-06-24T12:13:08.498Z,30.44
2016-06-24T12:14:08.564Z,30.71
2016-06-24T12:15:08.523Z,30.75
2016-06-24T12:16:08.498Z,30.81
2016-06-24T12:17:08.521Z,30.81
2016-06-24T12:18:08.549Z,30.7
2016-06-24T12:19:08.514Z,30.79
2016-06-24T12:20:08.487Z,30.84
2016-06-24T12:21:08.600Z,30.89
2016-06-24T12:22:08.578Z,31.07
2016-06-24T12:23:08.577Z,31.07
2016-06-24T12:24:08.529Z,30.97
2016-06-24T12:25:08.531Z,30.99
2016-06-24T12:26:08.661Z,30.69
2016-06-24T12:27:08.545Z,30.31
2016-06-24T12:28:08.566Z,30.07
2016-06-24T12:29:08.513Z,29.84
2016-06-24T12:30:08.576Z,29.57
2016-06-24T12:31:08.565Z,29.45
2016-06-24T12:32:08.526Z,29.42
2016-06-24T12:33:08.619Z,29.29
2016-06-24T12:34:08.566Z,29.21
2016-06-24T12:35:08.554Z,29.1
2016-06-24T12:36:08.575Z,29.05
2016-06-24T12:37:08.597Z,28.95
2016-06-24T12:38:08.574Z,28.92
2016-06-24T12:39:08.570Z,28.78
2016-06-24T12:40:08.611Z,28.8
2016-06-24T12:41:08.585Z,28.67
2016-06-24T12:42:08.649Z,28.64
2016-06-24T12:43:08.618Z,28.67
2016-06-24T12:44:08.591Z,28.61
2016-06-24T12:45:08.603Z,28.48
2016-06-24T12:46:08.565Z,28.41